Погода Новая Ржавкана неделю

Смоленская область, Россия

24 - 30 мая
  • 24мая
    Сегодня
    +8°
    +22°
    Практически безоблачно
    ВремяПогодаТемператураВлажностьДавлениеВетер, м/сВероятность осадков
    00:00Ясно и безоблачно+13°C55 %754 мм3.9 м/с2 %
    03:00Ясно и безоблачно+11°C57 %755 мм4.1 м/с2 %
    06:00Ясно и безоблачно+10°C59 %756 мм4.0 м/с2 %
    09:00Ясно и безоблачно+16°C52 %756 мм4.5 м/с2 %
    12:00Ясно и безоблачно+20°C37 %756 мм5.1 м/с2 %
    15:00Практически безоблачно+22°C34 %756 мм4.6 м/с2 %
    18:00Ясно и безоблачно+20°C35 %755 мм4.3 м/с2 %
    21:00Ясно и безоблачно+15°C53 %755 мм2.7 м/с2 %
  • 25мая
    Суббота
    +9°
    +24°
    Ясно и безоблачно
    ВремяПогодаТемператураВлажностьДавлениеВетер, м/сВероятность осадков
    00:00Ясно и безоблачно+11°C60 %755 мм2.9 м/с2 %
    03:00Ясно и безоблачно+9°C65 %755 мм2.8 м/с2 %
    06:00Ясно и безоблачно+10°C69 %755 мм2.6 м/с2 %
    09:00Ясно и безоблачно+16°C55 %755 мм2.2 м/с2 %
    12:00Ясно и безоблачно+21°C46 %755 мм2.3 м/с2 %
    15:00Ясно и безоблачно+23°C39 %754 мм2.7 м/с2 %
    18:00Ясно и безоблачно+23°C40 %753 мм2.3 м/с2 %
    21:00Ясно и безоблачно+17°C67 %753 мм2.6 м/с2 %
  • 26мая
    Воскресенье
    +12°
    +25°
    Небольшая облачность
    ВремяПогодаТемператураВлажностьДавлениеВетер, м/сВероятность осадков
    00:00Ясно и безоблачно+12°C77 %753 мм2.6 м/с2 %
    03:00Ясно и безоблачно+10°C84 %753 мм2.7 м/с2 %
    06:00Облачно с прояснениями+11°C76 %753 мм1.7 м/с2 %
    09:00Облачно с прояснениями+19°C51 %753 мм1.4 м/с2 %
    12:00Практически безоблачно+23°C39 %753 мм1.4 м/с2 %
    15:00Небольшая облачность+24°C32 %752 мм1.9 м/с2 %
    18:00Небольшая облачность+24°C33 %751 мм2.9 м/с2 %
    21:00Ясно и безоблачно+17°C63 %751 мм2.7 м/с2 %
  • 27мая
    Понедельник
    +12°
    +25°
    Ясно и безоблачно
    ВремяПогодаТемператураВлажностьДавлениеВетер, м/сВероятность осадков
    00:00Ясно и безоблачно+14°C68 %751 мм2.0 м/с2 %
    03:00Ясно и безоблачно+12°C85 %752 мм2.0 м/с2 %
    06:00Ясно и безоблачно+14°C83 %752 мм2.3 м/с2 %
    09:00Ясно и безоблачно+19°C69 %753 мм2.4 м/с2 %
    12:00Ясно и безоблачно+24°C49 %753 мм2.8 м/с7 %
    15:00Ясно и безоблачно+25°C46 %752 мм1.7 м/с21 %
    18:00Практически безоблачно+23°C46 %752 мм1.5 м/с28 %
    21:00Практически безоблачно+20°C64 %752 мм2.7 м/с7 %
  • 28мая
    Вторник
    +12°
    +25°
    Практически безоблачно
    ВремяПогодаТемператураВлажностьДавлениеВетер, м/сВероятность осадков
    00:00Ясно и безоблачно+16°C75 %752 мм2.8 м/с2 %
    03:00Ясно и безоблачно+14°C90 %752 мм2.0 м/с2 %
    06:00Ясно и безоблачно+13°C90 %752 мм2.4 м/с2 %
    09:00Ясно и безоблачно+20°C69 %752 мм2.1 м/с2 %
    12:00Практически безоблачно+23°C50 %751 мм2.3 м/с4 %
    15:00Практически безоблачно+24°C44 %751 мм2.4 м/с10 %
    18:00Ясно и безоблачно+23°C45 %750 мм2.5 м/с6 %
    21:00Ясно и безоблачно+21°C53 %750 мм0.8 м/с5 %
Мы используем cookies
Соглашаюсь